Time;durP1;ratioP1;P1;durP2;ratioP2;P2;SDS_P1;SDS_P2;PMS_P1;PMS_P2;Temp;Humidity;BMP_temperature;BMP_pressure;BME280_temperature;BME280_humidity;BME280_pressure;Samples;Min_cycle;Max_cycle;Signal;HPM_P1;HPM_P2
2022/07/03 00:01:23;;;;;;;1.38;1.00;;;;;;;28.58;38.43;101610.91;5048174;28;20441;-70
2022/07/03 00:03:48;;;;;;;3.63;1.38;;;;;;;28.55;38.58;101613.72;5048977;28;20078;-70
2022/07/03 00:06:13;;;;;;;2.55;1.23;;;;;;;28.57;38.31;101607.34;5048680;28;20538;-70
2022/07/03 00:08:39;;;;;;;2.63;1.20;;;;;;;28.56;38.62;101610.09;5048371;28;20040;-70
2022/07/03 00:11:05;;;;;;;1.60;1.17;;;;;;;28.53;38.59;101613.81;5048141;28;20664;-70
2022/07/03 00:13:31;;;;;;;2.35;1.30;;;;;;;28.53;38.48;101604.91;5048707;28;20040;-70
2022/07/03 00:15:57;;;;;;;3.00;1.30;;;;;;;28.54;38.52;101604.84;5047876;28;20037;-70
2022/07/03 00:18:22;;;;;;;2.50;1.20;;;;;;;28.53;38.56;101603.09;5048425;28;20032;-70
2022/07/03 00:20:49;;;;;;;3.80;1.33;;;;;;;28.52;38.41;101603.16;5048441;28;20035;-70
2022/07/03 00:23:21;;;;;;;2.13;1.27;;;;;;;28.53;38.43;101607.59;5048240;28;20058;-70
2022/07/03 00:25:49;;;;;;;2.25;1.10;;;;;;;28.52;38.71;101600.47;5048203;28;20029;-70
2022/07/03 00:28:14;;;;;;;2.72;1.27;;;;;;;28.51;38.64;101596.06;5048160;28;20025;-70
2022/07/03 00:30:41;;;;;;;2.97;1.13;;;;;;;28.51;38.47;101590.69;5048487;28;20662;-70
2022/07/03 00:33:07;;;;;;;2.30;1.30;;;;;;;28.53;38.57;101591.50;5048261;28;20029;-70
2022/07/03 00:35:36;;;;;;;2.40;1.30;;;;;;;28.50;38.71;101595.19;5046977;28;20048;-70
2022/07/03 00:38:02;;;;;;;2.50;1.30;;;;;;;28.51;38.52;101593.38;5048110;28;20383;-70
2022/07/03 00:40:29;;;;;;;1.75;1.30;;;;;;;28.50;38.50;101594.31;5048264;28;20033;-70
2022/07/03 00:42:55;;;;;;;2.42;1.20;;;;;;;28.50;38.63;101586.28;5033797;28;20033;-70
2022/07/03 00:45:21;;;;;;;2.53;1.45;;;;;;;28.48;38.53;101586.34;5047562;28;20055;-70
2022/07/03 00:47:47;;;;;;;2.17;1.13;;;;;;;28.50;38.67;101588.94;5046736;28;20025;-70
2022/07/03 00:50:13;;;;;;;3.40;1.25;;;;;;;28.46;38.41;101590.06;5047809;28;20106;-70
2022/07/03 00:52:47;;;;;;;2.45;1.30;;;;;;;28.42;38.75;101581.28;5048096;28;20057;-70
2022/07/03 00:55:16;;;;;;;2.20;1.20;;;;;;;28.45;38.69;101586.50;5044410;28;20044;-70
2022/07/03 00:57:46;;;;;;;2.97;1.20;;;;;;;28.43;38.92;101580.34;5047762;28;20020;-70
2022/07/03 01:00:16;;;;;;;2.80;1.27;;;;;;;28.44;38.71;101578.53;5048132;28;20033;-70
2022/07/03 01:02:44;;;;;;;2.35;1.30;;;;;;;28.40;38.57;101579.63;5048164;28;20475;-70
2022/07/03 01:05:23;;;;;;;3.05;1.17;;;;;;;28.39;38.85;101577.88;5047877;28;20037;-70
2022/07/03 01:08:19;;;;;;;2.28;1.15;;;;;;;28.34;38.78;101570.09;5036710;28;20079;-70
2022/07/03 01:11:29;;;;;;;2.28;1.05;;;;;;;28.34;38.99;101566.53;5046186;28;20075;-69
2022/07/03 01:14:16;;;;;;;3.10;1.20;;;;;;;28.35;38.80;101571.81;5046162;28;20521;-70
2022/07/03 01:17:11;;;;;;;2.15;1.15;;;;;;;28.35;39.17;101574.50;5046840;28;20486;-70
2022/07/03 01:19:41;;;;;;;3.03;1.30;;;;;;;28.31;39.05;101562.16;5047697;28;20099;-70
2022/07/03 01:22:30;;;;;;;1.77;1.17;;;;;;;28.32;38.85;101571.97;5050917;28;20021;-70
2022/07/03 01:25:16;;;;;;;2.05;1.30;;;;;;;28.30;38.82;101564.94;5048433;28;20045;-70
2022/07/03 01:28:06;;;;;;;2.92;1.20;;;;;;;28.31;39.00;101563.97;5052045;28;20059;-70
2022/07/03 01:30:35;;;;;;;1.73;1.10;;;;;;;28.31;39.13;101563.97;5052072;28;20475;-69
2022/07/03 01:33:09;;;;;;;2.65;1.23;;;;;;;28.29;38.76;101550.69;5052071;28;20059;-70
2022/07/03 01:35:40;;;;;;;1.90;1.10;;;;;;;28.30;39.00;101552.38;5051986;28;20067;-70
2022/07/03 01:38:09;;;;;;;2.65;1.20;;;;;;;28.28;39.19;101545.38;5049358;28;20037;-70
2022/07/03 01:40:36;;;;;;;2.22;1.20;;;;;;;28.27;39.10;101546.31;5051763;28;20487;-70
2022/07/03 01:43:05;;;;;;;2.47;1.20;;;;;;;28.25;39.12;101549.94;5051707;28;20036;-70
2022/07/03 01:45:34;;;;;;;2.03;1.17;;;;;;;28.28;38.71;101546.25;5051576;28;20411;-70
2022/07/03 01:48:02;;;;;;;2.05;1.27;;;;;;;28.27;38.65;101544.50;5051458;28;20065;-70
2022/07/03 01:50:28;;;;;;;2.33;1.20;;;;;;;28.25;39.07;101541.91;5051539;28;20059;-70
2022/07/03 01:52:56;;;;;;;2.28;1.10;;;;;;;28.26;38.90;101537.41;5051843;28;20025;-70
2022/07/03 01:55:23;;;;;;;2.28;1.20;;;;;;;28.24;38.88;101540.16;5051276;28;20059;-69
2022/07/03 01:57:50;;;;;;;1.80;1.20;;;;;;;28.22;39.13;101539.38;5051568;28;20033;-70
2022/07/03 02:00:18;;;;;;;1.85;1.33;;;;;;;28.23;38.80;101538.44;5051482;28;20135;-70
2022/07/03 02:03:19;;;;;;;1.85;1.10;;;;;;;28.24;39.04;101545.50;5051821;28;20482;-70
2022/07/03 02:05:46;;;;;;;2.00;1.10;;;;;;;28.24;39.12;101545.50;5047568;28;20041;-69
2022/07/03 02:08:32;;;;;;;2.55;1.00;;;;;;;28.22;38.96;101542.06;5050104;28;20021;-70
2022/07/03 02:11:13;;;;;;;1.98;1.10;;;;;;;28.18;39.07;101537.78;5051320;28;20041;-70
2022/07/03 02:13:50;;;;;;;1.90;1.08;;;;;;;28.21;39.07;101537.63;5051134;28;20025;-70
2022/07/03 02:16:19;;;;;;;2.55;1.30;;;;;;;28.21;38.72;101542.13;5050905;28;20039;-70
2022/07/03 02:18:55;;;;;;;1.67;1.20;;;;;;;28.18;39.11;101540.44;5051062;28;20029;-70
2022/07/03 02:21:21;;;;;;;3.03;1.20;;;;;;;28.19;39.21;101544.00;5051242;28;20037;-70
2022/07/03 02:23:55;;;;;;;2.83;1.08;;;;;;;28.17;38.83;101536.06;5050813;28;20032;-70
2022/07/03 02:26:37;;;;;;;1.98;1.10;;;;;;;28.17;38.93;101541.44;5051174;28;20035;-70
2022/07/03 02:29:05;;;;;;;1.40;1.20;;;;;;;28.18;39.11;101543.13;5051007;28;20053;-70
2022/07/03 02:31:38;;;;;;;1.40;1.13;;;;;;;28.19;38.74;101544.00;5042929;28;20071;-70
2022/07/03 02:34:04;;;;;;;1.88;1.20;;;;;;;28.14;39.32;101540.69;5049931;28;20609;-70
2022/07/03 02:36:31;;;;;;;1.63;1.10;;;;;;;28.15;39.27;101537.94;5050870;28;20028;-70
2022/07/03 02:38:58;;;;;;;1.20;1.00;;;;;;;28.10;39.27;101542.63;5051200;28;20032;-70
2022/07/03 02:41:29;;;;;;;1.45;1.10;;;;;;;28.12;39.32;101547.91;5050444;28;20029;-70
2022/07/03 02:44:23;;;;;;;1.63;1.00;;;;;;;28.11;39.31;101540.81;5050778;28;20040;-70
2022/07/03 02:47:11;;;;;;;;;;;;;;;28.15;39.21;101547.78;5050672;28;20124;-70
2022/07/03 02:49:48;;;;;;;2.55;1.17;;;;;;;28.13;39.30;101545.19;5050514;28;19917;-70
2022/07/03 02:52:23;;;;;;;2.03;1.13;;;;;;;28.11;39.16;101547.06;5050770;28;20368;-69
2022/07/03 02:54:51;;;;;;;1.50;1.02;;;;;;;28.09;39.39;101546.25;5048063;28;20039;-70
2022/07/03 02:57:20;;;;;;;2.08;1.30;;;;;;;28.08;39.41;101547.19;5050582;28;20021;-70
2022/07/03 02:59:55;;;;;;;1.55;1.20;;;;;;;28.07;39.21;101545.44;5050727;28;20110;-70
2022/07/03 03:02:42;;;;;;;2.17;1.23;;;;;;;28.05;39.24;101551.84;5047985;28;20029;-70
2022/07/03 03:05:20;;;;;;;1.55;1.10;;;;;;;28.04;39.50;101550.97;5045499;28;20036;-70
2022/07/03 03:08:21;;;;;;;1.67;1.10;;;;;;;28.03;39.36;101548.34;5049201;28;20087;-70
2022/07/03 03:10:50;;;;;;;1.40;1.17;;;;;;;28.07;39.18;101548.13;5050242;28;20607;-70
2022/07/03 03:13:19;;;;;;;2.22;1.20;;;;;;;28.05;39.18;101541.13;5048933;28;20139;-70
2022/07/03 03:16:03;;;;;;;1.95;1.15;;;;;;;28.04;39.34;101542.94;5050341;28;20051;-70
2022/07/03 03:18:29;;;;;;;1.48;1.10;;;;;;;28.02;39.16;101551.97;5050092;28;20108;-70
2022/07/03 03:21:01;;;;;;;1.58;1.05;;;;;;;27.99;39.40;101544.97;5049837;28;20035;-70
2022/07/03 03:23:48;;;;;;;1.25;1.10;;;;;;;27.99;39.37;101555.69;5050325;28;20101;-70
2022/07/03 03:26:25;;;;;;;2.05;1.15;;;;;;;28.00;39.63;101552.03;5049200;28;20025;-70
2022/07/03 03:28:52;;;;;;;2.25;1.20;;;;;;;28.01;39.45;101550.22;5048686;28;20029;-70
2022/07/03 03:31:19;;;;;;;2.85;1.30;;;;;;;28.00;39.34;101554.72;5049748;28;20028;-70
2022/07/03 03:33:50;;;;;;;2.22;1.15;;;;;;;28.00;39.61;101545.81;5048102;28;20037;-70
2022/07/03 03:36:18;;;;;;;2.92;1.30;;;;;;;28.00;39.25;101551.19;5049676;28;20033;-70
2022/07/03 03:38:44;;;;;;;1.80;1.27;;;;;;;27.97;39.33;101541.50;5049734;28;20036;-70
2022/07/03 03:41:10;;;;;;;3.45;1.30;;;;;;;28.00;39.56;101537.78;5049495;28;20055;-70
2022/07/03 03:43:36;;;;;;;2.15;1.20;;;;;;;27.98;39.47;101531.63;5047481;28;20411;-70
2022/07/03 03:46:02;;;;;;;1.85;1.20;;;;;;;28.00;39.46;101538.66;5048099;28;20032;-70
2022/07/03 03:48:29;;;;;;;2.38;1.30;;;;;;;27.96;39.25;101542.44;5049555;28;20527;-70
2022/07/03 03:50:57;;;;;;;1.95;1.13;;;;;;;27.97;39.43;101544.16;5049170;28;20057;-70
2022/07/03 03:53:24;;;;;;;1.90;1.30;;;;;;;27.96;39.07;101531.72;5049607;28;20017;-70
2022/07/03 03:56:11;;;;;;;1.60;1.10;;;;;;;27.94;39.36;101533.59;5045009;28;20029;-70
2022/07/03 03:58:38;;;;;;;1.70;1.20;;;;;;;27.96;39.22;101528.16;5047643;28;20028;-70
2022/07/03 04:01:06;;;;;;;1.98;1.30;;;;;;;27.95;39.05;101532.63;5049195;28;20494;-70
2022/07/03 04:03:33;;;;;;;1.90;1.20;;;;;;;27.93;39.29;101534.56;5048770;28;20028;-70
2022/07/03 04:05:59;;;;;;;1.70;1.15;;;;;;;27.96;39.26;101530.84;5048798;28;20075;-70
2022/07/03 04:08:25;;;;;;;1.52;1.17;;;;;;;27.95;39.48;101538.00;5045055;28;20025;-70
2022/07/03 04:10:50;;;;;;;1.50;1.10;;;;;;;27.92;39.28;101535.50;5048861;28;20048;-69
2022/07/03 04:13:17;;;;;;;2.10;1.30;;;;;;;27.95;39.11;101542.50;5048547;28;20025;-70
2022/07/03 04:15:42;;;;;;;1.65;1.15;;;;;;;27.93;39.42;101539.03;5048771;28;20029;-70
2022/07/03 04:18:08;;;;;;;4.28;1.20;;;;;;;27.93;39.61;101542.59;5048701;28;20479;-70
2022/07/03 04:20:34;;;;;;;1.88;1.10;;;;;;;27.93;39.14;101545.28;5043644;28;20052;-71
2022/07/03 04:22:59;;;;;;;1.50;1.15;;;;;;;27.92;39.50;101548.88;5048994;28;20120;-70
2022/07/03 04:25:25;;;;;;;2.05;1.25;;;;;;;27.93;39.60;101547.94;5048337;28;20502;-70
2022/07/03 04:27:51;;;;;;;1.63;1.20;;;;;;;27.92;39.46;101550.69;5048804;28;20029;-70
2022/07/03 04:30:16;;;;;;;2.55;1.17;;;;;;;27.92;39.34;101558.75;5047356;28;20040;-70
2022/07/03 04:32:42;;;;;;;2.35;1.40;;;;;;;27.92;39.18;101558.75;5048802;28;20478;-70
2022/07/03 04:35:07;;;;;;;2.17;1.20;;;;;;;27.92;39.18;101559.59;5049084;28;20064;-70
2022/07/03 04:37:33;;;;;;;1.98;1.15;;;;;;;27.90;39.54;101556.13;5048209;28;20029;-70
2022/07/03 04:39:58;;;;;;;1.63;1.20;;;;;;;27.91;39.61;101548.94;5047465;28;20052;-70
2022/07/03 04:42:24;;;;;;;1.42;1.10;;;;;;;27.91;39.47;101551.63;5048305;28;20024;-70
2022/07/03 04:44:49;;;;;;;1.85;1.17;;;;;;;27.90;39.38;101553.44;5048404;28;20138;-70
2022/07/03 04:47:15;;;;;;;1.77;1.30;;;;;;;27.90;39.35;101547.22;5048502;28;20049;-70
2022/07/03 04:49:41;;;;;;;2.47;1.30;;;;;;;27.90;39.46;101548.09;5048227;28;20124;-70
2022/07/03 04:52:07;;;;;;;1.67;1.27;;;;;;;27.91;39.13;101544.47;5048006;28;20079;-70
2022/07/03 04:54:32;;;;;;;1.30;1.15;;;;;;;27.88;39.27;101541.91;5045844;28;20029;-70
2022/07/03 04:56:58;;;;;;;1.83;1.20;;;;;;;27.89;39.43;101540.97;5047728;28;20380;-70
2022/07/03 04:59:23;;;;;;;1.60;1.20;;;;;;;27.88;39.42;101541.03;5046814;28;20057;-70
2022/07/03 05:01:49;;;;;;;2.95;1.40;;;;;;;27.89;39.19;101534.75;5047928;28;20041;-70
2022/07/03 05:04:15;;;;;;;1.67;1.23;;;;;;;27.89;39.45;101530.25;5048531;28;20561;-70
2022/07/03 05:06:41;;;;;;;1.50;1.20;;;;;;;27.89;39.39;101532.94;5047796;28;20433;-70
2022/07/03 05:09:06;;;;;;;2.55;1.30;;;;;;;27.91;39.13;101533.75;5046674;28;20037;-70
2022/07/03 05:11:32;;;;;;;1.67;1.30;;;;;;;27.92;39.02;101535.50;5047792;28;20032;-70
2022/07/03 05:13:57;;;;;;;1.67;1.33;;;;;;;27.92;39.13;101531.94;5043644;28;20032;-70
2022/07/03 05:16:22;;;;;;;2.22;1.30;;;;;;;27.91;39.18;101532.88;5048524;28;20103;-70
2022/07/03 05:18:48;;;;;;;1.60;1.20;;;;;;;27.91;38.98;101539.09;5046953;28;20157;-70
2022/07/03 05:21:13;;;;;;;2.17;1.30;;;;;;;27.93;38.77;101542.59;5047315;28;20036;-70
2022/07/03 05:23:38;;;;;;;2.60;1.38;;;;;;;27.94;38.70;101546.97;5046930;28;20029;-70
2022/07/03 05:26:04;;;;;;;1.63;1.23;;;;;;;27.95;39.02;101545.16;5046919;28;20021;-71
2022/07/03 05:28:29;;;;;;;1.83;1.20;;;;;;;27.93;39.06;101550.63;5046700;28;20029;-71
2022/07/03 05:30:54;;;;;;;1.80;1.20;;;;;;;27.95;38.74;101553.22;5047806;28;20041;-71
2022/07/03 05:33:20;;;;;;;1.55;1.20;;;;;;;27.98;38.87;101553.09;5047895;28;20044;-71
2022/07/03 05:35:45;;;;;;;1.63;1.20;;;;;;;27.98;38.94;101558.44;5047946;28;20045;-71
2022/07/03 05:38:11;;;;;;;2.20;1.27;;;;;;;27.99;38.87;101562.88;5048006;28;20025;-71
2022/07/03 05:40:36;;;;;;;1.40;1.20;;;;;;;27.99;39.12;101562.88;5047924;28;20028;-71
2022/07/03 05:43:01;;;;;;;1.92;1.10;;;;;;;28.00;39.24;101560.09;5047406;28;20048;-71
2022/07/03 05:45:27;;;;;;;2.03;1.20;;;;;;;28.00;39.02;101561.91;5047897;28;20049;-71
2022/07/03 05:47:53;;;;;;;1.88;1.17;;;;;;;28.01;39.06;101563.63;5047989;28;20051;-71
2022/07/03 05:50:18;;;;;;;2.28;1.20;;;;;;;28.01;38.98;101561.81;5046372;28;20029;-70
2022/07/03 05:52:44;;;;;;;1.70;1.10;;;;;;;28.05;39.06;101566.13;5047822;28;20044;-70
2022/07/03 05:55:09;;;;;;;1.95;1.30;;;;;;;28.09;39.02;101567.69;5046228;28;20441;-70
2022/07/03 05:57:35;;;;;;;1.88;1.25;;;;;;;28.13;38.88;101565.72;5047437;28;20523;-71
2022/07/03 06:00:01;;;;;;;1.90;1.30;;;;;;;28.16;39.00;101561.13;5047709;28;20033;-71
2022/07/03 06:02:27;;;;;;;1.45;1.10;;;;;;;28.21;38.79;101566.25;5047732;28;20048;-73
2022/07/03 06:04:52;;;;;;;1.45;1.10;;;;;;;28.28;38.48;101564.16;5047218;28;20028;-72
2022/07/03 06:07:17;;;;;;;1.75;1.20;;;;;;;30.10;35.52;101571.44;5041050;28;20044;-71
2022/07/03 06:09:44;;;;;;;1.60;1.20;;;;;;;33.16;30.22;101565.47;5051363;28;20059;-72
2022/07/03 06:12:09;;;;;;;1.33;1.23;;;;;;;32.08;31.77;101567.41;5051298;28;20028;-72
2022/07/03 06:14:35;;;;;;;1.92;1.25;;;;;;;30.59;34.19;101563.25;5050720;28;20048;-73
2022/07/03 06:17:00;;;;;;;2.35;1.30;;;;;;;29.25;36.40;101569.88;5051627;28;20472;-72
2022/07/03 06:19:26;;;;;;;1.48;1.17;;;;;;;28.80;37.68;101570.47;5050986;28;20025;-71
2022/07/03 06:21:51;;;;;;;1.60;1.23;;;;;;;28.65;37.79;101572.97;5051192;28;20039;-72
2022/07/03 06:24:17;;;;;;;1.55;1.15;;;;;;;28.54;38.14;101569.09;5050508;28;20063;-72
2022/07/03 06:26:42;;;;;;;1.55;1.20;;;;;;;28.56;38.12;101570.72;5050903;28;20958;-73
2022/07/03 06:29:07;;;;;;;1.50;1.10;;;;;;;28.44;38.40;101565.13;5050878;28;20029;-71
2022/07/03 06:31:33;;;;;;;1.35;1.10;;;;;;;28.48;38.43;101564.03;5051116;28;20040;-71
2022/07/03 06:33:58;;;;;;;1.50;1.10;;;;;;;28.49;38.67;101566.63;5049126;28;20044;-69
2022/07/03 06:36:24;;;;;;;2.65;1.20;;;;;;;28.52;38.61;101562.94;5050940;28;20039;-69
2022/07/03 06:38:49;;;;;;;2.65;1.20;;;;;;;28.52;38.67;101565.59;5050844;28;20036;-69
2022/07/03 06:41:14;;;;;;;1.55;1.20;;;;;;;28.52;38.29;101571.84;5050913;28;20536;-69
2022/07/03 06:43:40;;;;;;;1.60;1.25;;;;;;;28.49;38.67;101569.31;5048329;28;20051;-69
2022/07/03 06:46:05;;;;;;;1.95;1.15;;;;;;;28.50;38.80;101571.03;5050637;28;20055;-69
2022/07/03 06:48:30;;;;;;;1.30;1.10;;;;;;;28.50;38.66;101573.72;5050387;28;20025;-69
2022/07/03 06:50:56;;;;;;;1.95;1.15;;;;;;;28.50;38.47;101576.41;5050487;28;20037;-69
2022/07/03 06:53:21;;;;;;;1.52;1.10;;;;;;;28.49;38.91;101568.44;5050454;28;20083;-69
2022/07/03 06:55:46;;;;;;;1.45;1.17;;;;;;;28.53;38.54;101580.75;5047474;28;20534;-69
2022/07/03 06:58:13;;;;;;;1.88;1.20;;;;;;;28.54;38.62;101582.50;5050393;28;20052;-69
2022/07/03 07:00:38;;;;;;;2.95;1.10;;;;;;;28.58;38.57;101582.28;5050386;28;20021;-69
2022/07/03 07:03:04;;;;;;;1.88;1.27;;;;;;;28.56;38.76;101583.28;5044421;28;20102;-70
2022/07/03 07:05:30;;;;;;;3.08;1.25;;;;;;;28.63;38.46;101587.41;5049536;28;20037;-70
2022/07/03 07:07:55;;;;;;;1.65;1.30;;;;;;;28.67;38.47;101586.28;5044833;28;20029;-68
2022/07/03 07:10:20;;;;;;;2.33;1.20;;;;;;;28.69;38.66;101584.41;5048990;28;20025;-69
2022/07/03 07:12:46;;;;;;;1.35;1.00;;;;;;;28.69;38.69;101589.78;5050262;28;20467;-70
2022/07/03 07:15:11;;;;;;;1.30;1.08;;;;;;;28.70;39.09;101601.38;5050397;28;20028;-69
2022/07/03 07:17:37;;;;;;;1.70;1.20;;;;;;;28.74;39.12;101589.56;5049227;28;20103;-69
2022/07/03 07:20:03;;;;;;;2.67;1.00;;;;;;;28.70;39.17;101588.81;5031240;28;20032;-69
2022/07/03 07:22:28;;;;;;;1.83;1.08;;;;;;;28.71;39.14;101595.06;5048534;28;20021;-69
2022/07/03 07:24:54;;;;;;;1.80;1.20;;;;;;;28.71;39.42;101595.94;5049760;28;20501;-69
2022/07/03 07:27:19;;;;;;;1.65;1.10;;;;;;;28.74;39.13;101600.28;5049689;28;20030;-69
2022/07/03 07:29:44;;;;;;;2.55;1.10;;;;;;;28.74;39.62;101603.84;5049481;28;20482;-68
2022/07/03 07:32:10;;;;;;;5.57;1.10;;;;;;;28.64;39.59;101599.88;5049686;28;20064;-68
2022/07/03 07:34:35;;;;;;;2.42;1.10;;;;;;;28.67;39.45;101597.88;5049637;28;20028;-68
2022/07/03 07:37:00;;;;;;;2.67;1.20;;;;;;;28.72;39.57;101602.16;5048524;28;20773;-68
2022/07/03 07:39:26;;;;;;;2.45;1.00;;;;;;;28.74;39.42;101605.66;5049169;28;20025;-68
2022/07/03 07:41:51;;;;;;;1.38;1.00;;;;;;;28.73;39.25;101604.75;5049801;28;20025;-69
2022/07/03 07:44:17;;;;;;;3.78;1.15;;;;;;;28.73;39.28;101604.75;5049383;28;20073;-68
2022/07/03 07:46:42;;;;;;;2.55;1.10;;;;;;;28.75;39.31;101604.72;5049464;28;20040;-68
2022/07/03 07:49:07;;;;;;;3.42;1.10;;;;;;;28.75;39.80;101607.41;5048911;28;20131;-68
2022/07/03 07:51:33;;;;;;;1.83;1.10;;;;;;;28.73;39.40;101603.91;5049583;28;20171;-67
2022/07/03 07:53:59;;;;;;;2.90;1.13;;;;;;;28.78;39.39;101604.56;5049260;28;20033;-67
2022/07/03 07:56:25;;;;;;;3.80;1.10;;;;;;;28.72;39.74;101603.03;5048403;28;20040;-67
2022/07/03 07:58:51;;;;;;;1.67;1.20;;;;;;;28.78;39.74;101608.13;5049436;28;20055;-67
2022/07/03 08:06:49;;;;;;;4.85;1.30;;;;;;;28.83;39.60;101607.91;5039323;28;20047;-67
2022/07/03 08:09:14;;;;;;;5.05;1.13;;;;;;;28.85;39.31;101604.16;5049469;28;20025;-68
2022/07/03 08:11:40;;;;;;;3.58;1.30;;;;;;;28.85;39.30;101611.38;5049180;28;20518;-68
2022/07/03 08:14:07;;;;;;;2.88;1.30;;;;;;;28.85;39.02;101609.53;5048229;28;20119;-68
2022/07/03 08:16:33;;;;;;;5.97;1.40;;;;;;;28.85;39.23;101606.00;5049201;28;20036;-68
2022/07/03 08:18:59;;;;;;;2.50;1.20;;;;;;;28.84;39.18;101612.31;5048902;28;20025;-69
2022/07/03 08:21:25;;;;;;;3.45;1.05;;;;;;;28.79;39.51;101607.16;5047586;28;20055;-69
2022/07/03 08:23:50;;;;;;;2.95;1.20;;;;;;;28.78;39.14;101609.94;5047603;28;20083;-68
2022/07/03 08:26:15;;;;;;;2.50;1.17;;;;;;;28.81;39.39;101612.47;5048700;28;20040;-67
2022/07/03 08:28:41;;;;;;;5.20;1.40;;;;;;;28.72;40.11;101613.78;5044062;28;20590;-73
2022/07/03 08:31:06;;;;;;;3.88;1.05;;;;;;;28.83;39.25;101621.31;5035365;28;20039;-69
2022/07/03 08:33:32;;;;;;;2.35;1.20;;;;;;;28.88;39.01;101619.25;5028643;28;20037;-69
2022/07/03 08:35:57;;;;;;;2.60;1.30;;;;;;;28.88;39.43;101619.25;5035301;28;20033;-70
2022/07/03 08:38:30;;;;;;;2.92;1.40;;;;;;;28.91;39.22;101617.28;5031479;28;20025;-70
2022/07/03 08:40:59;;;;;;;2.30;1.20;;;;;;;28.90;39.06;101614.69;5034676;28;20475;-70
2022/07/03 08:43:24;;;;;;;2.42;1.30;;;;;;;28.87;38.75;101622.88;5030427;28;20045;-69
2022/07/03 08:45:50;;;;;;;3.00;1.20;;;;;;;28.89;38.93;101619.19;5036441;28;20084;-70
2022/07/03 08:48:18;;;;;;;5.38;1.20;;;;;;;28.88;38.66;101624.63;5033317;28;20051;-70
2022/07/03 08:50:44;;;;;;;3.08;1.30;;;;;;;28.87;38.69;101623.75;5026641;28;20037;-70
2022/07/03 08:53:11;;;;;;;3.22;1.30;;;;;;;28.85;38.47;101617.59;5025106;28;20055;-69
2022/07/03 08:55:36;;;;;;;3.58;1.30;;;;;;;28.90;38.49;101620.06;5027446;28;20046;-69
2022/07/03 08:58:04;;;;;;;2.80;1.27;;;;;;;28.91;38.52;101611.06;5035165;28;20021;-67
2022/07/03 09:00:31;;;;;;;4.00;1.30;;;;;;;28.91;38.36;101611.91;5030804;28;20685;-69
2022/07/03 09:02:58;;;;;;;3.58;1.20;;;;;;;28.94;38.51;101611.75;5029839;28;20457;-69
2022/07/03 09:05:24;;;;;;;2.10;1.30;;;;;;;28.97;38.59;101616.13;5028566;28;20049;-70
2022/07/03 09:07:49;;;;;;;5.38;1.35;;;;;;;28.95;38.14;101620.69;5025269;28;20124;-70
2022/07/03 09:10:17;;;;;;;1.90;1.10;;;;;;;28.95;37.91;101618.88;5024310;28;20029;-70
2022/07/03 09:12:44;;;;;;;4.55;1.20;;;;;;;28.96;38.20;101617.94;5029304;28;20033;-70
2022/07/03 09:15:09;;;;;;;2.63;1.20;;;;;;;28.96;37.84;101625.97;5032244;28;20105;-70
2022/07/03 09:17:36;;;;;;;5.30;1.10;;;;;;;28.98;38.03;101624.06;5032857;28;20067;-70
2022/07/03 09:20:05;;;;;;;3.35;1.30;;;;;;;28.99;37.60;101630.31;5042374;28;20037;-70
2022/07/03 09:22:35;;;;;;;2.92;1.20;;;;;;;29.00;38.09;101624.88;5032969;28;20036;-70
2022/07/03 09:25:13;;;;;;;1.95;1.20;;;;;;;29.00;37.43;101624.88;5024987;28;20043;-70
2022/07/03 09:27:51;;;;;;;1.92;0.95;;;;;;;29.03;37.60;101623.84;5036465;28;20025;-70
2022/07/03 09:30:16;;;;;;;3.03;1.10;;;;;;;29.02;37.28;101630.16;5027771;28;20655;-70
2022/07/03 09:32:47;;;;;;;2.10;1.13;;;;;;;29.04;36.99;101628.25;5032864;28;20021;-70
2022/07/03 09:35:15;;;;;;;1.98;0.90;;;;;;;29.06;36.96;101623.69;5027638;28;20359;-70
2022/07/03 09:37:47;;;;;;;1.60;1.00;;;;;;;29.07;36.84;101620.06;5035258;28;20025;-70
2022/07/03 09:40:13;;;;;;;1.58;0.98;;;;;;;29.05;36.66;101627.31;5038716;28;20361;-70
2022/07/03 09:42:38;;;;;;;1.77;0.98;;;;;;;29.05;36.48;101625.50;5038072;28;20031;-70
2022/07/03 09:45:04;;;;;;;3.03;1.00;;;;;;;29.09;36.36;101626.22;5028594;28;20136;-70
2022/07/03 09:47:29;;;;;;;2.92;1.00;;;;;;;29.13;36.55;101626.91;5023811;28;20052;-70
2022/07/03 09:49:58;;;;;;;2.33;1.00;;;;;;;29.13;36.38;101625.09;5028355;28;20112;-70
2022/07/03 09:52:34;;;;;;;2.47;1.00;;;;;;;29.15;36.09;101625.03;5033460;28;20029;-70
2022/07/03 09:55:01;;;;;;;2.42;1.27;;;;;;;29.14;36.38;101617.91;5026435;28;20033;-70
2022/07/03 09:57:28;;;;;;;2.20;1.00;;;;;;;29.13;36.37;101626.91;5031490;28;20045;-70
2022/07/03 10:00:15;;;;;;;2.25;0.90;;;;;;;29.10;36.21;101627.06;5037627;28;20033;-70
2022/07/03 10:02:53;;;;;;;2.25;0.90;;;;;;;29.12;36.50;101619.81;5037122;28;20026;-70
2022/07/03 10:05:19;;;;;;;4.15;1.00;;;;;;;29.12;36.65;101623.38;5043132;28;20104;-69
2022/07/03 10:07:53;;;;;;;2.55;1.00;;;;;;;29.10;36.41;101622.56;5028664;28;20021;-70
2022/07/03 10:10:21;;;;;;;1.83;1.00;;;;;;;29.10;36.16;101625.25;5034841;28;20029;-70
2022/07/03 10:12:50;;;;;;;1.95;1.08;;;;;;;29.11;36.26;101629.69;5034492;28;20032;-70
2022/07/03 10:15:16;;;;;;;1.52;0.93;;;;;;;29.13;36.20;101625.09;5036230;28;20099;-70
2022/07/03 10:17:42;;;;;;;2.00;0.90;;;;;;;29.12;36.53;101627.88;5033207;28;20060;-70
2022/07/03 10:20:13;;;;;;;1.55;1.00;;;;;;;29.11;36.17;101635.03;5039288;28;20067;-70
2022/07/03 10:22:41;;;;;;;2.25;1.00;;;;;;;29.13;36.32;101630.47;5035620;28;20025;-70
2022/07/03 10:25:07;;;;;;;2.38;0.93;;;;;;;29.13;36.40;101627.78;5027143;28;20021;-70
2022/07/03 10:27:34;;;;;;;2.28;1.02;;;;;;;29.13;36.51;101630.47;5039785;28;20029;-70
2022/07/03 10:30:00;;;;;;;3.78;1.10;;;;;;;29.13;35.92;101629.59;5050123;28;20037;-69
2022/07/03 10:32:27;;;;;;;3.70;1.17;;;;;;;29.10;36.25;101625.25;5037117;28;20044;-69
2022/07/03 10:34:53;;;;;;;2.65;1.00;;;;;;;29.09;36.48;101631.59;5031705;28;20021;-71
2022/07/03 10:37:21;;;;;;;2.08;0.90;;;;;;;29.13;35.90;101637.66;5032472;28;20753;-72
2022/07/03 10:46:13;;;;;;;2.63;1.00;;;;;;;29.15;36.31;101630.41;5030418;28;20040;-71
2022/07/03 10:49:02;;;;;;;2.38;1.02;;;;;;;29.14;35.97;101631.34;5039063;28;20030;-70
2022/07/03 10:51:31;;;;;;;2.70;1.00;;;;;;;29.22;35.86;101637.16;5034112;28;20490;-72
2022/07/03 10:54:38;;;;;;;2.40;0.95;;;;;;;29.14;36.22;101636.72;5019183;28;20408;-72
2022/07/03 10:57:03;;;;;;;2.92;1.00;;;;;;;29.23;35.98;101642.47;5020922;28;20026;-72
2022/07/03 10:59:31;;;;;;;3.65;1.13;;;;;;;29.26;35.84;101636.94;5012013;28;20040;-72
2022/07/03 11:02:19;;;;;;;2.15;1.00;;;;;;;29.27;35.92;101630.63;5020726;28;20060;-72
2022/07/03 11:04:56;;;;;;;2.30;1.00;;;;;;;29.28;36.04;101640.41;5030951;28;20033;-71
2022/07/03 11:07:21;;;;;;;3.17;1.00;;;;;;;29.30;36.05;101633.13;5028296;28;20427;-72
2022/07/03 11:10:13;;;;;;;2.72;1.13;;;;;;;29.29;35.96;101633.22;5030057;28;20090;-71
2022/07/03 11:12:56;;;;;;;2.30;1.00;;;;;;;29.32;36.06;101622.31;5035845;28;20036;-76
2022/07/03 11:15:35;;;;;;;3.30;0.90;;;;;;;29.32;36.54;101633.94;5050549;28;20032;-77
2022/07/03 11:18:22;;;;;;;3.95;1.00;;;;;;;29.32;36.37;101633.06;5031067;28;20025;-70
2022/07/03 11:20:51;;;;;;;4.00;1.15;;;;;;;29.23;36.35;101630.84;5030929;28;20026;-65
2022/07/03 11:23:29;;;;;;;17.65;1.58;;;;;;;29.19;37.03;101635.53;5038988;28;20036;-76
2022/07/03 11:25:55;;;;;;;2.67;1.10;;;;;;;29.18;36.59;101624.84;5038858;28;20025;-84
2022/07/03 11:28:33;;;;;;;5.97;1.10;;;;;;;29.16;37.08;101630.28;5049286;28;20098;-82
2022/07/03 11:31:07;;;;;;;4.65;1.10;;;;;;;29.18;36.61;101632.91;5043740;28;20029;-78
2022/07/03 11:33:42;;;;;;;4.72;1.20;;;;;;;29.15;36.58;101638.47;5025436;28;20029;-80
2022/07/03 11:36:16;;;;;;;9.77;1.23;;;;;;;29.37;36.15;101618.47;5033397;28;20487;-75
2022/07/03 11:39:12;;;;;;;3.75;1.30;;;;;;;29.23;36.50;101631.72;5044211;28;20049;-77
2022/07/03 11:41:37;;;;;;;3.95;1.38;;;;;;;29.35;35.54;101630.22;5026055;28;20041;-76
2022/07/03 11:44:05;;;;;;;4.05;1.23;;;;;;;29.31;35.70;101628.63;5029348;28;20048;-73
2022/07/03 11:46:35;;;;;;;2.45;1.00;;;;;;;29.27;35.64;101629.75;5047650;28;20791;-74